Time;durP1;ratioP1;P1;durP2;ratioP2;P2;SDS_P1;SDS_P2;PMS_P1;PMS_P2;Temp;Humidity;BMP_temperature;BMP_pressure;BME280_temperature;BME280_humidity;BME280_pressure;Samples;Min_cycle;Max_cycle;Signal;HPM_P1;HPM_P2
2021/09/17 00:02:06;;;;;;;0.40;0.20;;;15.30;99.90;;;;;;4997418;28;20245;-63
2021/09/17 00:04:31;;;;;;;0.30;0.20;;;15.20;99.90;;;;;;4997306;28;20506;-63
2021/09/17 00:06:57;;;;;;;0.63;0.50;;;15.30;99.90;;;;;;4996808;28;20179;-63
2021/09/17 00:09:22;;;;;;;1.50;1.40;;;15.30;99.90;;;;;;4996866;28;20248;-63
2021/09/17 00:11:48;;;;;;;0.40;0.20;;;15.20;99.90;;;;;;4996719;28;20183;-63
2021/09/17 00:14:14;;;;;;;0.50;0.40;;;15.30;99.90;;;;;;4996801;28;20197;-63
2021/09/17 00:16:40;;;;;;;0.40;0.20;;;15.40;99.90;;;;;;4996680;28;20422;-63
2021/09/17 00:19:05;;;;;;;0.30;0.10;;;15.40;99.90;;;;;;4996403;28;20534;-63
2021/09/17 00:21:31;;;;;;;0.80;0.20;;;15.50;99.90;;;;;;4996677;28;20762;-63
2021/09/17 00:23:57;;;;;;;0.30;0.20;;;15.50;99.90;;;;;;4996605;28;20198;-63
2021/09/17 00:26:22;;;;;;;0.40;0.30;;;15.50;99.90;;;;;;4996507;28;20191;-64
2021/09/17 00:28:50;;;;;;;0.30;0.10;;;15.60;99.90;;;;;;4996224;28;20203;-64
2021/09/17 00:31:16;;;;;;;0.30;0.20;;;15.50;99.90;;;;;;4996464;28;20510;-64
2021/09/17 00:33:42;;;;;;;0.30;0.20;;;15.50;99.90;;;;;;4995499;28;20186;-64
2021/09/17 00:36:07;;;;;;;0.40;0.30;;;15.60;99.90;;;;;;4996452;28;20183;-64
2021/09/17 00:38:33;;;;;;;0.40;0.20;;;15.50;99.90;;;;;;4996197;28;20616;-64
2021/09/17 00:40:58;;;;;;;0.40;0.30;;;15.60;99.90;;;;;;4996344;28;20175;-64
2021/09/17 00:43:24;;;;;;;0.70;0.27;;;15.60;99.90;;;;;;4996322;28;20179;-64
2021/09/17 00:45:49;;;;;;;0.40;0.20;;;15.60;99.90;;;;;;4996265;28;20575;-64
2021/09/17 00:48:15;;;;;;;0.30;0.20;;;15.50;99.90;;;;;;4994840;28;20191;-64
2021/09/17 00:50:41;;;;;;;0.40;0.40;;;15.40;99.90;;;;;;4996250;28;20218;-64
2021/09/17 00:53:07;;;;;;;0.30;0.20;;;15.40;99.90;;;;;;5000495;28;20895;-63
2021/09/17 00:55:33;;;;;;;0.30;0.17;;;15.40;99.90;;;;;;4996408;28;20584;-62
2021/09/17 00:57:59;;;;;;;0.30;0.20;;;15.30;99.90;;;;;;4996007;28;20195;-62
2021/09/17 01:00:24;;;;;;;0.30;0.20;;;15.20;99.90;;;;;;4995988;28;20187;-62
2021/09/17 01:02:50;;;;;;;0.40;0.30;;;15.20;99.90;;;;;;4996051;28;20504;-63
2021/09/17 01:05:16;;;;;;;0.40;0.20;;;15.10;99.90;;;;;;4995927;28;20174;-63
2021/09/17 01:07:44;;;;;;;0.30;0.20;;;15.10;99.90;;;;;;4995701;28;20608;-63
2021/09/17 01:10:10;;;;;;;0.30;0.20;;;15.10;99.90;;;;;;4995679;28;20643;-63
2021/09/17 01:12:37;;;;;;;0.30;0.20;;;15.10;99.90;;;;;;4995955;28;20183;-63
2021/09/17 01:15:04;;;;;;;0.30;0.20;;;15.20;99.90;;;;;;4995788;28;20171;-63
2021/09/17 01:17:35;;;;;;;0.47;0.45;;;15.20;99.90;;;;;;4995752;28;20171;-64
2021/09/17 01:20:02;;;;;;;0.30;0.10;;;15.50;99.90;;;;;;4995491;28;20183;-64
2021/09/17 01:22:28;;;;;;;0.30;0.20;;;15.40;99.90;;;;;;4995652;28;20250;-64
2021/09/17 01:24:53;;;;;;;0.30;0.20;;;15.30;99.90;;;;;;4996193;28;20186;-64
2021/09/17 01:27:19;;;;;;;0.30;0.10;;;15.30;99.90;;;;;;4996042;28;20178;-64
2021/09/17 01:29:45;;;;;;;0.30;0.20;;;15.40;99.90;;;;;;4995905;28;20221;-62
2021/09/17 01:32:10;;;;;;;0.30;0.20;;;15.20;99.90;;;;;;4996038;28;20179;-63
2021/09/17 01:34:36;;;;;;;0.30;0.20;;;15.20;99.90;;;;;;4995950;28;20183;-62
2021/09/17 01:37:01;;;;;;;0.30;0.20;;;15.10;99.90;;;;;;4995892;28;20209;-65
2021/09/17 01:39:27;;;;;;;0.30;0.20;;;15.10;99.90;;;;;;4995794;28;20243;-65
2021/09/17 01:41:53;;;;;;;0.53;0.50;;;15.30;99.90;;;;;;4996115;28;20218;-64
2021/09/17 01:44:18;;;;;;;0.40;0.30;;;15.40;99.90;;;;;;4995810;28;20313;-65
2021/09/17 01:46:44;;;;;;;0.87;0.30;;;15.40;99.90;;;;;;4994519;28;20182;-64
2021/09/17 01:49:10;;;;;;;0.40;0.20;;;15.40;99.90;;;;;;4995344;28;20214;-65
2021/09/17 01:51:36;;;;;;;0.40;0.20;;;15.30;99.90;;;;;;4995781;28;20437;-62
2021/09/17 01:54:04;;;;;;;0.40;0.20;;;15.30;99.90;;;;;;4995639;28;20225;-62
2021/09/17 01:56:30;;;;;;;0.30;0.20;;;15.30;99.90;;;;;;4995675;28;20217;-61
2021/09/17 01:58:55;;;;;;;0.30;0.20;;;15.30;99.90;;;;;;4993593;28;20190;-62
2021/09/17 02:01:21;;;;;;;0.30;0.10;;;15.20;99.90;;;;;;4995490;28;20193;-62
2021/09/17 02:03:47;;;;;;;0.30;0.20;;;15.30;99.90;;;;;;4994448;28;20206;-61
2021/09/17 02:06:24;;;;;;;0.40;0.30;;;15.30;99.90;;;;;;4995356;28;20436;-61
2021/09/17 02:08:51;;;;;;;0.50;0.43;;;15.40;99.90;;;;;;4994478;28;20210;-66
2021/09/17 02:11:20;;;;;;;0.40;0.20;;;15.50;99.90;;;;;;4995895;28;20186;-62
2021/09/17 02:13:45;;;;;;;0.30;0.20;;;15.40;99.90;;;;;;4995560;28;20529;-62
2021/09/17 02:16:11;;;;;;;0.30;0.20;;;15.30;99.90;;;;;;4995226;28;20174;-62
2021/09/17 02:18:37;;;;;;;0.63;0.63;;;15.30;99.90;;;;;;4995115;28;20179;-62
2021/09/17 02:21:03;;;;;;;0.50;0.40;;;15.40;99.90;;;;;;4995202;28;20183;-65
2021/09/17 02:23:28;;;;;;;0.30;0.20;;;15.50;99.90;;;;;;4993972;28;20186;-63
2021/09/17 02:25:54;;;;;;;0.40;0.40;;;15.40;99.90;;;;;;4995103;28;20190;-63
2021/09/17 02:28:20;;;;;;;0.70;0.40;;;15.30;99.90;;;;;;4994995;28;20209;-63
2021/09/17 02:30:45;;;;;;;0.47;0.30;;;15.30;99.90;;;;;;4993948;28;20559;-63
2021/09/17 02:33:11;;;;;;;1.73;0.83;;;15.00;99.90;;;;;;4994969;28;20600;-62
2021/09/17 02:35:37;;;;;;;0.30;0.20;;;15.10;99.90;;;;;;4995071;28;20668;-62
2021/09/17 02:38:03;;;;;;;0.30;0.20;;;15.20;99.90;;;;;;4995000;28;20186;-62
2021/09/17 02:40:30;;;;;;;0.40;0.20;;;15.20;99.90;;;;;;4994633;28;20639;-63
2021/09/17 02:42:57;;;;;;;0.30;0.20;;;15.10;99.90;;;;;;4994831;28;20193;-65
2021/09/17 02:45:22;;;;;;;0.80;0.80;;;15.10;99.90;;;;;;4994977;28;20608;-62
2021/09/17 02:47:48;;;;;;;0.40;0.20;;;15.10;99.90;;;;;;4994726;28;20183;-61
2021/09/17 02:50:14;;;;;;;0.30;0.20;;;15.20;99.90;;;;;;4994583;28;20206;-64
2021/09/17 02:52:39;;;;;;;0.30;0.20;;;15.40;99.90;;;;;;4994747;28;20236;-63
2021/09/17 02:55:06;;;;;;;0.30;0.10;;;15.30;99.90;;;;;;4994973;28;20193;-61
2021/09/17 02:57:32;;;;;;;0.60;0.60;;;15.20;99.90;;;;;;4994938;28;20175;-62
2021/09/17 02:59:58;;;;;;;0.50;0.27;;;15.10;99.90;;;;;;4993533;28;20189;-62
2021/09/17 03:02:23;;;;;;;0.33;0.20;;;15.10;99.90;;;;;;4994982;28;20457;-61
2021/09/17 03:04:49;;;;;;;0.40;0.30;;;15.10;99.90;;;;;;4994650;28;20178;-63
2021/09/17 03:07:15;;;;;;;0.40;0.30;;;15.00;99.90;;;;;;4994722;28;20187;-64
2021/09/17 03:09:40;;;;;;;0.30;0.20;;;14.90;99.90;;;;;;4994462;28;20231;-62
2021/09/17 03:12:06;;;;;;;0.40;0.37;;;14.90;99.90;;;;;;4998173;28;20186;-65
2021/09/17 03:14:32;;;;;;;0.30;0.20;;;15.10;99.90;;;;;;4998723;28;20182;-65
2021/09/17 03:16:57;;;;;;;0.30;0.20;;;15.00;99.90;;;;;;4998468;28;20514;-65
2021/09/17 03:19:23;;;;;;;0.30;0.20;;;15.10;99.90;;;;;;4998336;28;20197;-62
2021/09/17 03:21:48;;;;;;;0.30;0.20;;;15.10;99.90;;;;;;4998408;28;20194;-62
2021/09/17 03:24:14;;;;;;;0.30;0.20;;;15.10;99.90;;;;;;4998386;28;20262;-62
2021/09/17 03:26:40;;;;;;;0.30;0.20;;;15.10;99.90;;;;;;4998229;28;20207;-62
2021/09/17 03:29:06;;;;;;;0.30;0.20;;;15.10;99.90;;;;;;4998122;28;20211;-63
2021/09/17 03:31:31;;;;;;;0.30;0.10;;;15.00;99.90;;;;;;4998389;28;20427;-63
2021/09/17 03:34:00;;;;;;;0.30;0.10;;;15.10;99.90;;;;;;4998261;28;20189;-63
2021/09/17 03:36:26;;;;;;;0.30;0.20;;;15.10;99.90;;;;;;4997982;28;20179;-63
2021/09/17 03:38:53;;;;;;;0.30;0.20;;;15.10;99.90;;;;;;4997917;28;20191;-64
2021/09/17 03:41:19;;;;;;;0.30;0.20;;;15.10;99.90;;;;;;4997928;28;20695;-64
2021/09/17 03:43:44;;;;;;;0.40;0.20;;;15.10;99.90;;;;;;4997935;28;20256;-64
2021/09/17 03:46:10;;;;;;;0.40;0.20;;;15.00;99.90;;;;;;4997939;28;20389;-65
2021/09/17 03:48:35;;;;;;;0.30;0.20;;;14.80;99.90;;;;;;4997353;28;20282;-65
2021/09/17 03:51:01;;;;;;;0.30;0.20;;;14.90;99.90;;;;;;4997940;28;20183;-66
2021/09/17 03:53:27;;;;;;;0.30;0.20;;;14.90;99.90;;;;;;4998096;28;20185;-63
2021/09/17 03:55:52;;;;;;;0.30;0.20;;;14.90;99.90;;;;;;4997716;28;20434;-63
2021/09/17 03:58:18;;;;;;;0.30;0.20;;;14.90;99.90;;;;;;4997334;28;20198;-63
2021/09/17 04:00:43;;;;;;;0.30;0.20;;;15.00;99.90;;;;;;4996618;28;20682;-62
2021/09/17 04:03:09;;;;;;;0.30;0.20;;;14.80;99.90;;;;;;4997637;28;20262;-63
2021/09/17 04:05:34;;;;;;;0.30;0.20;;;14.90;99.90;;;;;;4997673;28;20187;-62
2021/09/17 04:08:00;;;;;;;0.30;0.20;;;14.90;99.90;;;;;;4997509;28;20193;-62
2021/09/17 04:10:26;;;;;;;0.30;0.20;;;14.90;99.90;;;;;;4997314;28;20213;-62
2021/09/17 04:12:52;;;;;;;0.30;0.20;;;14.80;99.90;;;;;;4997513;28;20174;-61
2021/09/17 04:15:17;;;;;;;0.30;0.20;;;14.80;99.90;;;;;;4997513;28;20254;-62
2021/09/17 04:17:44;;;;;;;0.40;0.20;;;14.70;99.90;;;;;;4997356;28;20233;-62
2021/09/17 04:20:10;;;;;;;0.30;0.20;;;14.60;99.90;;;;;;4997124;28;20646;-62
2021/09/17 04:22:37;;;;;;;0.38;0.20;;;14.70;99.90;;;;;;4996753;28;20194;-62
2021/09/17 04:25:03;;;;;;;0.30;0.20;;;14.80;99.90;;;;;;4997031;28;20187;-61
2021/09/17 04:27:29;;;;;;;0.40;0.38;;;14.90;99.90;;;;;;4996959;28;20179;-61
2021/09/17 04:29:55;;;;;;;0.40;0.20;;;14.80;99.90;;;;;;4997137;28;20654;-61
2021/09/17 04:32:21;;;;;;;0.30;0.20;;;14.80;99.90;;;;;;4997041;28;20183;-60
2021/09/17 04:34:46;;;;;;;0.30;0.20;;;14.70;99.90;;;;;;4997349;28;20269;-60
2021/09/17 04:37:12;;;;;;;0.30;0.20;;;14.60;99.90;;;;;;4996494;28;20433;-60
2021/09/17 04:39:37;;;;;;;0.40;0.20;;;14.60;99.90;;;;;;4996451;28;20426;-60
2021/09/17 04:42:04;;;;;;;0.30;0.20;;;14.60;99.90;;;;;;4996275;28;20189;-60
2021/09/17 04:44:29;;;;;;;0.40;0.20;;;14.70;99.90;;;;;;4996308;28;20210;-60
2021/09/17 04:46:55;;;;;;;0.30;0.20;;;14.80;99.90;;;;;;4996209;28;20187;-60
2021/09/17 04:49:20;;;;;;;0.30;0.10;;;14.80;99.90;;;;;;4995996;28;20211;-63
2021/09/17 04:51:46;;;;;;;0.40;0.20;;;14.70;99.90;;;;;;4995327;28;20490;-64
2021/09/17 04:54:13;;;;;;;0.30;0.20;;;14.70;99.90;;;;;;4996136;28;20174;-63
2021/09/17 04:56:39;;;;;;;0.35;0.20;;;14.60;99.90;;;;;;4996395;28;20171;-63
2021/09/17 04:59:05;;;;;;;0.40;0.20;;;14.50;91.40;;;;;;4995941;28;20174;-63
2021/09/17 05:01:31;;;;;;;0.40;0.20;;;14.50;42.40;;;;;;4995961;28;20535;-63
2021/09/17 05:03:57;;;;;;;0.30;0.20;;;14.50;43.60;;;;;;4995059;28;20453;-64
2021/09/17 05:06:22;;;;;;;0.40;0.20;;;14.50;91.10;;;;;;4995967;28;20178;-63
2021/09/17 05:08:48;;;;;;;0.43;0.27;;;14.50;48.80;;;;;;4995605;28;20206;-63
2021/09/17 05:11:13;;;;;;;0.50;0.37;;;14.40;53.70;;;;;;4995970;28;20191;-63
2021/09/17 05:13:39;;;;;;;0.40;0.20;;;14.40;77.70;;;;;;4996045;28;20183;-63
2021/09/17 05:16:05;;;;;;;0.30;0.10;;;14.40;99.90;;;;;;4995708;28;20179;-64
2021/09/17 05:18:30;;;;;;;0.40;0.20;;;14.50;99.90;;;;;;4995286;28;20214;-63
2021/09/17 05:20:56;;;;;;;0.40;0.20;;;14.50;99.90;;;;;;4995720;28;20186;-64
2021/09/17 05:23:22;;;;;;;0.40;0.30;;;14.50;99.90;;;;;;4995020;28;20636;-65
2021/09/17 05:25:48;;;;;;;0.50;0.30;;;14.50;99.90;;;;;;4995512;28;20818;-64
2021/09/17 05:28:13;;;;;;;0.47;0.40;;;14.60;99.90;;;;;;4994393;28;20179;-64
2021/09/17 05:30:39;;;;;;;0.30;0.20;;;14.60;99.40;;;;;;4995711;28;20206;-64
2021/09/17 05:33:05;;;;;;;0.70;0.30;;;14.60;99.90;;;;;;4994485;28;20182;-64
2021/09/17 05:35:31;;;;;;;0.30;0.10;;;14.50;57.10;;;;;;4995635;28;20186;-63
2021/09/17 05:37:57;;;;;;;1.38;0.30;;;14.40;1.00;;;;;;4994422;28;20197;-63
2021/09/17 05:40:22;;;;;;;0.30;0.20;;;14.40;1.00;;;;;;4995187;28;20187;-63
2021/09/17 05:42:48;;;;;;;0.30;0.20;;;14.40;8.90;;;;;;4994505;28;20190;-62
2021/09/17 05:45:13;;;;;;;0.40;0.20;;;14.40;1.00;;;;;;4994860;28;20213;-62
2021/09/17 05:47:42;;;;;;;0.40;0.20;;;14.60;1.00;;;;;;4994788;28;20226;-62
2021/09/17 05:50:08;;;;;;;0.40;0.20;;;14.40;1.00;;;;;;4994590;28;20217;-62
2021/09/17 05:52:34;;;;;;;0.40;0.20;;;14.40;1.00;;;;;;4994695;28;20175;-65
2021/09/17 05:54:59;;;;;;;0.40;0.20;;;14.60;1.00;;;;;;4994480;28;20601;-64
2021/09/17 05:57:25;;;;;;;0.40;0.20;;;14.30;1.00;;;;;;4994624;28;20258;-64
2021/09/17 05:59:50;;;;;;;0.37;0.20;;;14.40;1.10;;;;;;4994368;28;20195;-64
2021/09/17 06:02:16;;;;;;;0.40;0.20;;;14.30;1.00;;;;;;4994369;28;20201;-64
2021/09/17 06:04:42;;;;;;;0.77;0.30;;;14.40;1.50;;;;;;4994635;28;20191;-64
2021/09/17 06:07:07;;;;;;;0.40;0.20;;;14.40;1.00;;;;;;4994463;28;20186;-64
2021/09/17 06:09:35;;;;;;;0.40;0.20;;;14.10;24.80;;;;;;4994445;28;20338;-65
2021/09/17 06:12:01;;;;;;;0.40;0.20;;;14.40;53.50;;;;;;4994679;28;20650;-64
2021/09/17 06:14:26;;;;;;;0.40;0.20;;;14.40;1.00;;;;;;4993743;28;20179;-64
2021/09/17 06:16:52;;;;;;;0.40;0.20;;;14.50;2.60;;;;;;4994497;28;20186;-64
2021/09/17 06:19:17;;;;;;;0.40;0.20;;;14.80;1.00;;;;;;4994519;28;20714;-65
2021/09/17 06:21:46;;;;;;;0.40;0.20;;;14.70;1.00;;;;;;4994774;28;20179;-64
2021/09/17 06:24:12;;;;;;;0.38;0.10;;;14.70;1.00;;;;;;4994582;28;20185;-65
2021/09/17 06:26:38;;;;;;;0.40;0.20;;;14.60;1.00;;;;;;4994718;28;20171;-65
2021/09/17 06:29:06;;;;;;;0.70;0.37;;;14.60;1.00;;;;;;4994326;28;20217;-62
2021/09/17 06:31:33;;;;;;;0.60;0.20;;;14.50;1.00;;;;;;4994405;28;20535;-62
2021/09/17 06:33:59;;;;;;;0.30;0.10;;;14.40;1.00;;;;;;4994400;28;20607;-62
2021/09/17 06:36:24;;;;;;;0.37;0.10;;;14.50;1.00;;;;;;4994399;28;20195;-62
2021/09/17 06:38:50;;;;;;;0.60;0.30;;;14.70;1.00;;;;;;4994216;28;20198;-62
2021/09/17 06:41:16;;;;;;;0.97;0.30;;;14.70;1.00;;;;;;4994373;28;20197;-64
2021/09/17 06:43:42;;;;;;;0.40;0.10;;;14.60;1.00;;;;;;4992823;28;20182;-64
2021/09/17 06:46:07;;;;;;;1.80;0.93;;;14.80;1.00;;;;;;4989452;28;20191;-64
2021/09/17 06:48:33;;;;;;;0.40;0.20;;;15.00;1.00;;;;;;4993491;28;20194;-65
2021/09/17 06:50:59;;;;;;;0.40;0.20;;;14.80;1.00;;;;;;4994118;28;20187;-64
2021/09/17 06:53:24;;;;;;;1.60;0.60;;;14.90;1.00;;;;;;4994232;28;20175;-65
2021/09/17 06:55:50;;;;;;;0.40;0.20;;;14.80;1.00;;;;;;4991511;28;20581;-64
2021/09/17 06:58:17;;;;;;;0.40;0.20;;;14.60;1.00;;;;;;4988012;28;20612;-65
2021/09/17 07:00:43;;;;;;;0.50;0.50;;;14.60;1.00;;;;;;4988684;28;20230;-66
2021/09/17 07:03:09;;;;;;;0.60;0.30;;;14.70;1.00;;;;;;4999342;28;20197;-67
2021/09/17 07:05:34;;;;;;;0.40;0.20;;;14.80;1.00;;;;;;4992751;28;20266;-66
2021/09/17 07:08:05;;;;;;;0.40;0.20;;;14.80;1.00;;;;;;4991893;28;20179;-66
2021/09/17 07:10:32;;;;;;;0.40;0.10;;;14.90;1.00;;;;;;4994476;28;20477;-66
2021/09/17 07:12:58;;;;;;;0.40;0.20;;;14.80;1.00;;;;;;4993482;28;20198;-65
2021/09/17 07:15:24;;;;;;;0.40;0.20;;;14.80;1.00;;;;;;4993639;28;20333;-65
2021/09/17 07:17:50;;;;;;;5.20;4.43;;;14.90;1.00;;;;;;4993893;28;20430;-66
2021/09/17 07:20:17;;;;;;;0.40;0.20;;;14.90;1.00;;;;;;4992867;28;20663;-66
2021/09/17 07:22:43;;;;;;;0.40;0.20;;;15.20;1.00;;;;;;4993104;28;20245;-67
2021/09/17 07:25:09;;;;;;;0.53;0.50;;;15.30;1.00;;;;;;4994275;28;20195;-68
2021/09/17 07:27:36;;;;;;;1.55;1.45;;;15.20;1.00;;;;;;4993899;28;20472;-68
2021/09/17 07:30:04;;;;;;;0.40;0.20;;;15.00;1.00;;;;;;4993488;28;20242;-68
2021/09/17 07:32:31;;;;;;;0.50;0.50;;;14.80;1.00;;;;;;4994569;28;20623;-68
2021/09/17 07:34:57;;;;;;;0.40;0.20;;;15.00;1.00;;;;;;4995115;28;20639;-64
2021/09/17 07:37:22;;;;;;;0.40;0.20;;;15.10;1.00;;;;;;4988960;28;20188;-64
2021/09/17 07:39:48;;;;;;;0.93;0.87;;;15.20;99.90;;;;;;4989812;28;20561;-64
2021/09/17 07:42:14;;;;;;;0.40;0.20;;;15.40;99.90;;;;;;4986343;28;20195;-67
2021/09/17 07:44:39;;;;;;;0.40;0.20;;;15.70;99.90;;;;;;4993510;28;20499;-68
2021/09/17 07:47:05;;;;;;;0.40;0.20;;;15.50;99.90;;;;;;4993532;28;20750;-64
2021/09/17 07:49:31;;;;;;;0.40;0.10;;;15.50;52.40;;;;;;4992243;28;20271;-63
2021/09/17 07:51:57;;;;;;;0.40;0.10;;;15.70;99.90;;;;;;4992112;28;20533;-63
2021/09/17 07:54:23;;;;;;;0.50;0.20;;;15.70;99.90;;;;;;4990817;28;20333;-66
2021/09/17 07:56:50;;;;;;;0.40;0.20;;;16.00;1.00;;;;;;4993519;28;20186;-65
2021/09/17 07:59:15;;;;;;;0.50;0.30;;;15.80;9.20;;;;;;4995744;28;20186;-67
2021/09/17 08:01:41;;;;;;;0.40;0.20;;;16.10;1.00;;;;;;4997356;28;20214;-67
2021/09/17 08:04:06;;;;;;;0.40;0.20;;;16.00;1.00;;;;;;4997068;28;20183;-65
2021/09/17 08:06:32;;;;;;;0.40;0.20;;;15.90;99.90;;;;;;4995300;28;20600;-65
2021/09/17 08:09:00;;;;;;;0.40;0.20;;;16.10;1.00;;;;;;4995207;28;20213;-64
2021/09/17 08:11:26;;;;;;;0.43;0.23;;;16.50;99.90;;;;;;4995494;28;20189;-66
2021/09/17 08:13:51;;;;;;;0.40;0.20;;;16.30;1.00;;;;;;4995467;28;20844;-67
2021/09/17 08:16:17;;;;;;;0.40;0.20;;;15.80;1.00;;;;;;4995377;28;20182;-67
2021/09/17 08:18:45;;;;;;;0.40;0.20;;;15.80;99.90;;;;;;4995239;28;20186;-67
2021/09/17 08:21:10;;;;;;;0.40;0.10;;;15.60;99.90;;;;;;4996590;28;20233;-67
2021/09/17 08:23:36;;;;;;;0.40;0.20;;;15.90;33.70;;;;;;4996591;28;20186;-67
2021/09/17 08:26:03;;;;;;;0.40;0.20;;;16.30;1.00;;;;;;4996705;28;20430;-67
2021/09/17 08:28:29;;;;;;;0.40;0.20;;;16.30;99.90;;;;;;4996472;28;20175;-66
2021/09/17 08:30:55;;;;;;;0.40;0.20;;;16.10;99.90;;;;;;4997004;28;20210;-67
2021/09/17 08:33:21;;;;;;;0.40;0.20;;;16.20;1.00;;;;;;4996829;28;20250;-66
2021/09/17 08:35:47;;;;;;;0.40;0.10;;;16.20;99.90;;;;;;4995725;28;20468;-66
2021/09/17 08:38:12;;;;;;;0.53;0.53;;;16.10;99.90;;;;;;4995916;28;20225;-68
2021/09/17 08:40:38;;;;;;;3.13;0.87;;;15.80;1.00;;;;;;4996522;28;20248;-66
2021/09/17 08:43:03;;;;;;;0.40;0.20;;;16.10;1.00;;;;;;4995980;28;20537;-65
2021/09/17 08:45:30;;;;;;;0.40;0.20;;;16.30;1.00;;;;;;4996458;28;20271;-66
2021/09/17 08:48:00;;;;;;;0.40;0.30;;;16.20;47.30;;;;;;4996512;28;20187;-66
2021/09/17 08:50:26;;;;;;;0.40;0.20;;;16.20;1.00;;;;;;4994920;28;20484;-67
2021/09/17 08:52:52;;;;;;;0.40;0.20;;;15.90;1.00;;;;;;4996101;28;20194;-66
2021/09/17 08:55:18;;;;;;;0.40;0.20;;;16.00;1.00;;;;;;4995230;28;20178;-65
2021/09/17 08:57:45;;;;;;;0.40;0.20;;;16.30;99.90;;;;;;4996193;28;20418;-66
2021/09/17 09:00:26;;;;;;;0.40;0.20;;;16.70;1.00;;;;;;4995148;28;20187;-67
2021/09/17 09:02:56;;;;;;;0.40;0.20;;;16.20;1.00;;;;;;4995938;28;20449;-62
2021/09/17 09:05:33;;;;;;;0.40;0.20;;;15.90;1.00;;;;;;4995707;28;20444;-65
2021/09/17 09:07:59;;;;;;;0.40;0.20;;;16.00;34.30;;;;;;4995652;28;20178;-65
2021/09/17 09:10:25;;;;;;;0.40;0.20;;;16.10;1.00;;;;;;4994488;28;20476;-66
2021/09/17 09:12:57;;;;;;;0.40;0.20;;;16.10;1.00;;;;;;4996125;28;20568;-66
2021/09/17 09:15:31;;;;;;;0.40;0.10;;;16.10;1.00;;;;;;4995798;28;20256;-66
2021/09/17 09:18:05;;;;;;;0.60;0.30;;;16.50;1.00;;;;;;4995638;28;20437;-67
2021/09/17 09:20:32;;;;;;;0.50;0.20;;;16.90;9.90;;;;;;4996201;28;20513;-65
2021/09/17 09:23:05;;;;;;;0.40;0.20;;;16.50;99.90;;;;;;4995598;28;20767;-65
2021/09/17 09:25:30;;;;;;;0.40;0.10;;;16.30;99.90;;;;;;4995480;28;20418;-64
2021/09/17 09:28:17;;;;;;;5.10;1.33;;;16.60;1.00;;;;;;4995266;28;20425;-65
2021/09/17 09:30:43;;;;;;;0.57;0.30;;;16.60;99.90;;;;;;4995289;28;21029;-65
2021/09/17 09:33:29;;;;;;;0.60;0.30;;;16.40;99.90;;;;;;4995473;28;20452;-67
2021/09/17 09:35:57;;;;;;;0.40;0.20;;;16.40;99.90;;;;;;4995682;28;20511;-67
2021/09/17 09:38:31;;;;;;;0.40;0.20;;;16.70;1.00;;;;;;4994139;28;20817;-67
2021/09/17 09:40:59;;;;;;;0.40;0.23;;;17.30;1.00;;;;;;4995182;28;20517;-68
2021/09/17 09:43:33;;;;;;;0.40;0.20;;;17.10;99.90;;;;;;4995264;28;20445;-66
2021/09/17 09:46:28;;;;;;;0.40;0.20;;;17.20;1.00;;;;;;4994186;28;20509;-67
2021/09/17 09:48:59;;;;;;;0.40;0.20;;;17.20;99.90;;;;;;4994555;28;20449;-67
2021/09/17 09:51:26;;;;;;;0.40;0.20;;;17.40;1.00;;;;;;4995072;28;20450;-67
2021/09/17 09:53:52;;;;;;;0.50;0.30;;;16.90;1.00;;;;;;4994762;28;20418;-63
2021/09/17 09:56:19;;;;;;;0.60;0.33;;;16.50;1.00;;;;;;4994986;28;20560;-63
2021/09/17 09:58:47;;;;;;;0.40;0.20;;;16.30;99.90;;;;;;4994649;28;20190;-64
2021/09/17 10:01:16;;;;;;;0.77;0.37;;;16.00;1.00;;;;;;4994823;28;20515;-65
2021/09/17 10:03:43;;;;;;;0.60;0.20;;;16.10;99.90;;;;;;4994793;28;20422;-64
2021/09/17 10:06:10;;;;;;;0.40;0.20;;;16.10;1.00;;;;;;4994793;28;20961;-64
2021/09/17 10:08:35;;;;;;;0.40;0.20;;;16.20;1.00;;;;;;4994636;28;20187;-64
2021/09/17 10:11:01;;;;;;;0.50;0.30;;;16.60;99.90;;;;;;4994541;28;20528;-63
2021/09/17 10:13:27;;;;;;;0.40;0.20;;;16.50;23.90;;;;;;4994351;28;20249;-63
2021/09/17 10:15:53;;;;;;;0.40;0.20;;;16.80;99.90;;;;;;4994524;28;20197;-64
2021/09/17 10:18:19;;;;;;;0.50;0.20;;;17.50;1.00;;;;;;4993317;28;20807;-67
2021/09/17 10:20:45;;;;;;;0.40;0.20;;;17.60;1.00;;;;;;4993856;28;20456;-67
2021/09/17 10:23:31;;;;;;;0.40;0.20;;;17.40;1.00;;;;;;4994821;28;20421;-65
2021/09/17 10:26:09;;;;;;;1.67;0.47;;;17.30;99.90;;;;;;4994415;28;20465;-65
2021/09/17 10:29:04;;;;;;;0.40;0.20;;;17.10;99.90;;;;;;4994033;28;20441;-65
2021/09/17 10:31:41;;;;;;;0.77;0.50;;;16.50;99.90;;;;;;4993028;28;20429;-64
2021/09/17 10:34:38;;;;;;;1.15;1.15;;;16.50;1.00;;;;;;4994375;28;20182;-64
2021/09/17 10:37:05;;;;;;;0.40;0.20;;;16.40;1.00;;;;;;4993931;28;20196;-63
2021/09/17 10:39:32;;;;;;;0.40;0.20;;;16.40;1.00;;;;;;4993959;28;20179;-64
2021/09/17 10:42:15;;;;;;;0.50;0.30;;;16.20;99.90;;;;;;4994124;28;20183;-65
2021/09/17 10:45:02;;;;;;;0.50;0.20;;;16.50;2.20;;;;;;4993142;28;20460;-63
2021/09/17 10:47:40;;;;;;;0.40;0.20;;;16.60;1.00;;;;;;4994112;28;20417;-65
2021/09/17 10:50:07;;;;;;;0.40;0.20;;;16.90;1.00;;;;;;4993176;28;20465;-65
2021/09/17 10:52:45;;;;;;;0.40;0.20;;;17.40;91.50;;;;;;4994325;28;20433;-65
2021/09/17 10:55:45;;;;;;;0.40;0.20;;;17.20;1.00;;;;;;4992907;28;20430;-65
2021/09/17 10:58:26;;;;;;;0.40;0.23;;;17.00;26.20;;;;;;4994014;28;20418;-66
2021/09/17 11:00:55;;;;;;;0.50;0.30;;;16.70;1.00;;;;;;4994467;28;20513;-66
2021/09/17 11:03:39;;;;;;;0.40;0.20;;;16.60;1.00;;;;;;4993123;28;20430;-66
2021/09/17 11:06:19;;;;;;;0.40;0.20;;;16.60;99.90;;;;;;4992803;28;20573;-65
2021/09/17 11:08:47;;;;;;;0.50;0.23;;;16.80;1.00;;;;;;4989397;28;20437;-64
2021/09/17 11:11:26;;;;;;;0.40;0.30;;;16.70;1.00;;;;;;4993858;28;20437;-68
2021/09/17 11:14:00;;;;;;;0.40;0.20;;;17.20;1.00;;;;;;4993799;28;20429;-65
2021/09/17 11:16:27;;;;;;;0.50;0.23;;;17.40;1.00;;;;;;4987246;28;20740;-65
2021/09/17 11:19:04;;;;;;;0.40;0.20;;;17.20;1.00;;;;;;4990379;28;20443;-63
2021/09/17 11:21:32;;;;;;;1.23;0.50;;;17.30;1.00;;;;;;4979634;28;20433;-64
2021/09/17 11:23:58;;;;;;;0.40;0.20;;;17.40;1.00;;;;;;4981678;28;20450;-63
2021/09/17 11:26:30;;;;;;;0.40;0.20;;;17.40;99.90;;;;;;4993485;28;20530;-62
2021/09/17 11:29:07;;;;;;;0.40;0.10;;;17.30;1.00;;;;;;4987981;28;20454;-65
2021/09/17 11:31:44;;;;;;;0.40;0.20;;;17.60;99.90;;;;;;4992921;28;20433;-63
2021/09/17 11:34:12;;;;;;;0.40;0.20;;;17.40;99.90;;;;;;4997265;28;20789;-62
2021/09/17 11:36:42;;;;;;;0.40;0.20;;;17.10;1.00;;;;;;4997847;28;20434;-62
2021/09/17 11:39:25;;;;;;;0.70;0.30;;;17.00;99.90;;;;;;4995879;28;20426;-64
2021/09/17 11:42:13;;;;;;;0.40;0.20;;;16.70;99.90;;;;;;4997736;28;20421;-65
2021/09/17 11:44:44;;;;;;;0.40;0.20;;;16.60;1.00;;;;;;4997793;28;20428;-65
2021/09/17 11:47:27;;;;;;;0.50;0.30;;;16.40;99.90;;;;;;4996690;28;20763;-64
2021/09/17 11:49:58;;;;;;;0.40;0.20;;;16.50;99.90;;;;;;4997610;28;20250;-62
2021/09/17 11:52:24;;;;;;;0.40;0.20;;;15.90;99.90;;;;;;4997999;28;20183;-64
2021/09/17 11:55:00;;;;;;;0.50;0.20;;;15.90;1.00;;;;;;4997853;28;20241;-64
2021/09/17 11:57:31;;;;;;;0.40;0.20;;;16.20;1.00;;;;;;4997767;28;20913;-65
2021/09/17 11:59:57;;;;;;;0.40;0.20;;;16.20;99.90;;;;;;4996433;28;20437;-65
2021/09/17 12:02:25;;;;;;;0.40;0.20;;;16.20;1.00;;;;;;4997855;28;20182;-65
2021/09/17 12:05:03;;;;;;;0.40;0.20;;;16.50;99.90;;;;;;4997074;28;20179;-65
2021/09/17 12:07:30;;;;;;;0.40;0.10;;;16.10;1.00;;;;;;4997287;28;20429;-65
2021/09/17 12:09:56;;;;;;;0.40;0.20;;;16.00;1.00;;;;;;4997156;28;20552;-65
2021/09/17 12:12:33;;;;;;;0.40;0.20;;;16.10;1.00;;;;;;4997426;28;20982;-65
2021/09/17 12:14:59;;;;;;;0.40;0.20;;;16.40;1.00;;;;;;4996081;28;20505;-65
2021/09/17 12:17:25;;;;;;;0.40;0.20;;;16.40;1.00;;;;;;4997580;28;20469;-65
2021/09/17 12:19:58;;;;;;;0.40;0.10;;;16.40;1.00;;;;;;4995985;28;20444;-65
2021/09/17 12:22:35;;;;;;;0.50;0.40;;;16.70;1.00;;;;;;4996199;28;20183;-62
2021/09/17 12:25:15;;;;;;;0.40;0.20;;;16.70;99.90;;;;;;4997140;28;20531;-62
2021/09/17 12:27:43;;;;;;;0.40;0.20;;;16.70;99.90;;;;;;4997190;28;20426;-63
2021/09/17 12:30:21;;;;;;;0.40;0.20;;;16.80;1.00;;;;;;4996678;28;20484;-63
2021/09/17 12:33:06;;;;;;;0.40;0.20;;;16.50;1.00;;;;;;4997039;28;20484;-65
2021/09/17 12:35:32;;;;;;;0.47;0.27;;;16.40;1.00;;;;;;4996846;28;20917;-64
2021/09/17 12:37:58;;;;;;;0.40;0.20;;;16.60;99.90;;;;;;4996530;28;20441;-63
2021/09/17 12:40:32;;;;;;;0.40;0.10;;;16.50;99.90;;;;;;4996682;28;20265;-63
2021/09/17 12:43:03;;;;;;;0.47;0.30;;;16.50;99.90;;;;;;4996743;28;20449;-65
2021/09/17 12:45:30;;;;;;;0.40;0.20;;;16.70;1.00;;;;;;4996761;28;20207;-65
2021/09/17 12:47:58;;;;;;;0.40;0.20;;;16.60;71.30;;;;;;4996207;28;20179;-65
2021/09/17 12:50:44;;;;;;;2.00;0.27;;;16.70;99.90;;;;;;4996361;28;20473;-65
2021/09/17 12:53:14;;;;;;;0.40;0.20;;;16.60;99.90;;;;;;4996668;28;20499;-64
2021/09/17 12:55:42;;;;;;;0.40;0.23;;;16.80;1.00;;;;;;4996779;28;20437;-65